sensor_id;sensor_type;location;lat;lon;timestamp;temperature;humidity
5218;DHT22;26539;51.064;6.346;2024-03-02T00:00:35;9.30;1.00
5218;DHT22;26539;51.064;6.346;2024-03-02T00:03:01;9.40;1.00
5218;DHT22;26539;51.064;6.346;2024-03-02T00:05:26;9.30;1.00
5218;DHT22;26539;51.064;6.346;2024-03-02T00:07:56;9.40;1.00
5218;DHT22;26539;51.064;6.346;2024-03-02T00:10:26;9.40;1.00
5218;DHT22;26539;51.064;6.346;2024-03-02T00:12:55;9.50;1.00
5218;DHT22;26539;51.064;6.346;2024-03-02T00:17:47;9.40;1.00
5218;DHT22;26539;51.064;6.346;2024-03-02T00:20:17;9.40;1.00
5218;DHT22;26539;51.064;6.346;2024-03-02T00:22:44;9.50;1.00
5218;DHT22;26539;51.064;6.346;2024-03-02T00:25:09;9.50;1.00
5218;DHT22;26539;51.064;6.346;2024-03-02T00:27:35;9.50;1.00
5218;DHT22;26539;51.064;6.346;2024-03-02T00:30:32;9.50;1.00
5218;DHT22;26539;51.064;6.346;2024-03-02T00:32:47;9.50;1.00
5218;DHT22;26539;51.064;6.346;2024-03-02T00:35:12;9.50;1.00
5218;DHT22;26539;51.064;6.346;2024-03-02T00:37:38;9.50;1.00
5218;DHT22;26539;51.064;6.346;2024-03-02T00:40:03;9.40;1.00
5218;DHT22;26539;51.064;6.346;2024-03-02T00:42:30;9.40;1.00
5218;DHT22;26539;51.064;6.346;2024-03-02T00:44:56;9.40;1.00
5218;DHT22;26539;51.064;6.346;2024-03-02T00:47:21;9.40;1.00
5218;DHT22;26539;51.064;6.346;2024-03-02T00:49:47;9.40;1.00
5218;DHT22;26539;51.064;6.346;2024-03-02T00:52:13;9.40;1.00
5218;DHT22;26539;51.064;6.346;2024-03-02T00:54:38;9.40;1.00
5218;DHT22;26539;51.064;6.346;2024-03-02T00:57:03;9.30;1.00
5218;DHT22;26539;51.064;6.346;2024-03-02T00:59:29;9.40;1.00
5218;DHT22;26539;51.064;6.346;2024-03-02T01:01:57;9.30;1.00
5218;DHT22;26539;51.064;6.346;2024-03-02T01:04:22;9.30;1.00
5218;DHT22;26539;51.064;6.346;2024-03-02T01:06:48;9.30;1.00
5218;DHT22;26539;51.064;6.346;2024-03-02T01:09:13;9.30;1.00
5218;DHT22;26539;51.064;6.346;2024-03-02T01:11:39;9.20;1.00
5218;DHT22;26539;51.064;6.346;2024-03-02T01:14:04;9.20;1.00
5218;DHT22;26539;51.064;6.346;2024-03-02T01:16:30;9.20;4.70
5218;DHT22;26539;51.064;6.346;2024-03-02T01:18:55;9.20;3.00
5218;DHT22;26539;51.064;6.346;2024-03-02T01:21:21;9.20;13.90
5218;DHT22;26539;51.064;6.346;2024-03-02T01:23:46;9.20;25.50
5218;DHT22;26539;51.064;6.346;2024-03-02T01:26:12;9.20;43.80
5218;DHT22;26539;51.064;6.346;2024-03-02T01:28:37;9.20;73.70
5218;DHT22;26539;51.064;6.346;2024-03-02T01:31:03;9.20;92.90
5218;DHT22;26539;51.064;6.346;2024-03-02T01:33:28;9.20;92.40
5218;DHT22;26539;51.064;6.346;2024-03-02T01:35:54;9.30;99.30
5218;DHT22;26539;51.064;6.346;2024-03-02T01:38:19;9.30;99.90
5218;DHT22;26539;51.064;6.346;2024-03-02T01:40:45;9.30;99.30
5218;DHT22;26539;51.064;6.346;2024-03-02T01:43:11;9.40;92.10
5218;DHT22;26539;51.064;6.346;2024-03-02T01:45:37;9.40;91.60
5218;DHT22;26539;51.064;6.346;2024-03-02T01:48:04;9.40;82.60
5218;DHT22;26539;51.064;6.346;2024-03-02T01:50:32;9.40;72.60
5218;DHT22;26539;51.064;6.346;2024-03-02T01:52:58;9.40;64.70
5218;DHT22;26539;51.064;6.346;2024-03-02T01:55:24;9.40;66.10
5218;DHT22;26539;51.064;6.346;2024-03-02T01:57:50;9.50;57.90
5218;DHT22;26539;51.064;6.346;2024-03-02T02:00:17;9.50;60.40
5218;DHT22;26539;51.064;6.346;2024-03-02T02:02:43;9.50;81.30
5218;DHT22;26539;51.064;6.346;2024-03-02T02:05:09;9.50;98.90
5218;DHT22;26539;51.064;6.346;2024-03-02T02:07:34;9.50;76.70
5218;DHT22;26539;51.064;6.346;2024-03-02T02:10:00;9.60;26.30
5218;DHT22;26539;51.064;6.346;2024-03-02T02:12:26;9.60;6.20
5218;DHT22;26539;51.064;6.346;2024-03-02T02:14:52;9.70;1.00
5218;DHT22;26539;51.064;6.346;2024-03-02T02:17:17;9.70;1.00
5218;DHT22;26539;51.064;6.346;2024-03-02T02:19:43;9.70;1.00
5218;DHT22;26539;51.064;6.346;2024-03-02T02:22:09;9.80;1.00
5218;DHT22;26539;51.064;6.346;2024-03-02T02:24:34;9.80;1.00
5218;DHT22;26539;51.064;6.346;2024-03-02T02:27:00;9.80;50.30
5218;DHT22;26539;51.064;6.346;2024-03-02T02:29:25;9.90;99.90
5218;DHT22;26539;51.064;6.346;2024-03-02T02:31:51;9.80;99.90
5218;DHT22;26539;51.064;6.346;2024-03-02T02:34:16;9.80;1.00
5218;DHT22;26539;51.064;6.346;2024-03-02T02:36:42;9.70;99.90
5218;DHT22;26539;51.064;6.346;2024-03-02T02:39:09;9.60;99.90
5218;DHT22;26539;51.064;6.346;2024-03-02T02:41:37;9.50;1.00
5218;DHT22;26539;51.064;6.346;2024-03-02T02:44:03;9.40;99.90
5218;DHT22;26539;51.064;6.346;2024-03-02T02:46:28;9.30;1.00
5218;DHT22;26539;51.064;6.346;2024-03-02T02:48:54;9.30;65.10
5218;DHT22;26539;51.064;6.346;2024-03-02T02:51:19;9.20;99.90
5218;DHT22;26539;51.064;6.346;2024-03-02T02:53:45;9.10;1.00
5218;DHT22;26539;51.064;6.346;2024-03-02T02:56:10;9.00;99.90
5218;DHT22;26539;51.064;6.346;2024-03-02T02:58:36;9.00;1.00
5218;DHT22;26539;51.064;6.346;2024-03-02T03:01:02;9.00;1.00
5218;DHT22;26539;51.064;6.346;2024-03-02T03:03:27;8.90;1.00
5218;DHT22;26539;51.064;6.346;2024-03-02T03:05:52;8.90;99.90
5218;DHT22;26539;51.064;6.346;2024-03-02T03:08:18;8.90;99.90
5218;DHT22;26539;51.064;6.346;2024-03-02T03:10:44;8.90;99.90
5218;DHT22;26539;51.064;6.346;2024-03-02T03:13:09;8.90;99.90
5218;DHT22;26539;51.064;6.346;2024-03-02T03:15:35;8.80;99.90
5218;DHT22;26539;51.064;6.346;2024-03-02T03:18:02;8.80;99.90
5218;DHT22;26539;51.064;6.346;2024-03-02T03:20:29;8.80;75.00
5218;DHT22;26539;51.064;6.346;2024-03-02T03:22:54;8.80;99.90
5218;DHT22;26539;51.064;6.346;2024-03-02T03:25:20;8.80;99.90
5218;DHT22;26539;51.064;6.346;2024-03-02T03:27:45;8.80;99.90
5218;DHT22;26539;51.064;6.346;2024-03-02T03:30:11;8.80;99.90
5218;DHT22;26539;51.064;6.346;2024-03-02T03:32:37;8.80;99.90
5218;DHT22;26539;51.064;6.346;2024-03-02T03:35:02;8.70;99.90
5218;DHT22;26539;51.064;6.346;2024-03-02T03:37:28;8.70;1.00
5218;DHT22;26539;51.064;6.346;2024-03-02T03:39:58;8.70;1.00
5218;DHT22;26539;51.064;6.346;2024-03-02T03:42:24;8.70;1.00
5218;DHT22;26539;51.064;6.346;2024-03-02T03:44:49;8.70;1.00
5218;DHT22;26539;51.064;6.346;2024-03-02T03:47:15;8.70;1.00
5218;DHT22;26539;51.064;6.346;2024-03-02T03:49:40;8.70;1.00
5218;DHT22;26539;51.064;6.346;2024-03-02T03:52:06;8.70;99.90
5218;DHT22;26539;51.064;6.346;2024-03-02T03:54:31;8.70;99.90
5218;DHT22;26539;51.064;6.346;2024-03-02T03:56:57;8.60;1.00
5218;DHT22;26539;51.064;6.346;2024-03-02T03:59:22;8.60;1.00
5218;DHT22;26539;51.064;6.346;2024-03-02T04:01:49;8.60;41.20
5218;DHT22;26539;51.064;6.346;2024-03-02T04:04:14;8.60;99.90
5218;DHT22;26539;51.064;6.346;2024-03-02T04:06:40;8.60;99.90
5218;DHT22;26539;51.064;6.346;2024-03-02T04:09:05;8.60;99.90
5218;DHT22;26539;51.064;6.346;2024-03-02T04:11:31;8.60;99.90
5218;DHT22;26539;51.064;6.346;2024-03-02T04:13:57;8.60;99.90
5218;DHT22;26539;51.064;6.346;2024-03-02T04:16:22;8.60;99.90
5218;DHT22;26539;51.064;6.346;2024-03-02T04:18:48;8.60;99.90
5218;DHT22;26539;51.064;6.346;2024-03-02T04:21:13;8.60;99.90
5218;DHT22;26539;51.064;6.346;2024-03-02T04:23:39;8.60;99.90
5218;DHT22;26539;51.064;6.346;2024-03-02T04:26:04;8.60;99.90
5218;DHT22;26539;51.064;6.346;2024-03-02T04:28:30;8.60;1.00
5218;DHT22;26539;51.064;6.346;2024-03-02T04:30:55;8.50;1.00
5218;DHT22;26539;51.064;6.346;2024-03-02T04:33:21;8.50;1.00
5218;DHT22;26539;51.064;6.346;2024-03-02T04:35:46;8.40;1.00
5218;DHT22;26539;51.064;6.346;2024-03-02T04:38:12;8.50;1.00
5218;DHT22;26539;51.064;6.346;2024-03-02T04:40:37;8.50;1.00
5218;DHT22;26539;51.064;6.346;2024-03-02T04:43:03;8.50;1.00
5218;DHT22;26539;51.064;6.346;2024-03-02T04:45:29;8.50;1.00
5218;DHT22;26539;51.064;6.346;2024-03-02T04:47:54;8.50;1.00
5218;DHT22;26539;51.064;6.346;2024-03-02T04:50:19;8.50;1.00
5218;DHT22;26539;51.064;6.346;2024-03-02T04:52:45;8.60;1.00
5218;DHT22;26539;51.064;6.346;2024-03-02T04:55:10;8.60;1.00
5218;DHT22;26539;51.064;6.346;2024-03-02T04:57:42;8.60;1.00
5218;DHT22;26539;51.064;6.346;2024-03-02T05:00:08;8.50;1.00
5218;DHT22;26539;51.064;6.346;2024-03-02T05:02:34;8.60;1.00
5218;DHT22;26539;51.064;6.346;2024-03-02T05:04:59;8.60;99.90
5218;DHT22;26539;51.064;6.346;2024-03-02T05:07:25;8.60;99.90
5218;DHT22;26539;51.064;6.346;2024-03-02T05:09:50;8.60;1.00
5218;DHT22;26539;51.064;6.346;2024-03-02T05:12:16;8.60;99.90
5218;DHT22;26539;51.064;6.346;2024-03-02T05:15:00;8.60;97.60
5218;DHT22;26539;51.064;6.346;2024-03-02T05:17:25;8.70;99.90
5218;DHT22;26539;51.064;6.346;2024-03-02T05:19:51;8.70;82.40
5218;DHT22;26539;51.064;6.346;2024-03-02T05:22:16;8.70;1.00
5218;DHT22;26539;51.064;6.346;2024-03-02T05:24:42;8.70;1.00
5218;DHT22;26539;51.064;6.346;2024-03-02T05:27:07;8.70;99.90
5218;DHT22;26539;51.064;6.346;2024-03-02T05:29:33;8.80;99.90
5218;DHT22;26539;51.064;6.346;2024-03-02T05:31:58;8.80;1.00
5218;DHT22;26539;51.064;6.346;2024-03-02T05:34:24;8.80;1.00
5218;DHT22;26539;51.064;6.346;2024-03-02T05:36:49;8.80;99.90
5218;DHT22;26539;51.064;6.346;2024-03-02T05:39:14;8.80;99.90
5218;DHT22;26539;51.064;6.346;2024-03-02T05:41:40;8.80;99.90
5218;DHT22;26539;51.064;6.346;2024-03-02T05:44:06;8.80;16.10
5218;DHT22;26539;51.064;6.346;2024-03-02T05:46:32;8.80;18.40
5218;DHT22;26539;51.064;6.346;2024-03-02T05:48:58;8.80;22.90
5218;DHT22;26539;51.064;6.346;2024-03-02T05:51:23;8.80;31.20
5218;DHT22;26539;51.064;6.346;2024-03-02T05:53:49;8.80;19.40
5218;DHT22;26539;51.064;6.346;2024-03-02T05:56:15;8.80;1.00
5218;DHT22;26539;51.064;6.346;2024-03-02T05:58:40;8.80;30.00
5218;DHT22;26539;51.064;6.346;2024-03-02T06:01:33;8.80;99.90
5218;DHT22;26539;51.064;6.346;2024-03-02T06:03:58;8.80;99.90
5218;DHT22;26539;51.064;6.346;2024-03-02T06:06:24;8.70;99.90
5218;DHT22;26539;51.064;6.346;2024-03-02T06:08:50;8.70;1.00
5218;DHT22;26539;51.064;6.346;2024-03-02T06:11:15;8.60;1.00
5218;DHT22;26539;51.064;6.346;2024-03-02T06:13:41;8.60;99.90
5218;DHT22;26539;51.064;6.346;2024-03-02T06:16:06;8.60;1.00
5218;DHT22;26539;51.064;6.346;2024-03-02T06:18:32;8.60;17.00
5218;DHT22;26539;51.064;6.346;2024-03-02T06:20:57;8.60;99.90
5218;DHT22;26539;51.064;6.346;2024-03-02T06:23:23;8.60;99.90
5218;DHT22;26539;51.064;6.346;2024-03-02T06:25:48;8.60;1.00
5218;DHT22;26539;51.064;6.346;2024-03-02T06:28:14;8.60;1.00
5218;DHT22;26539;51.064;6.346;2024-03-02T06:30:41;8.60;1.00
5218;DHT22;26539;51.064;6.346;2024-03-02T06:33:07;8.60;1.00
5218;DHT22;26539;51.064;6.346;2024-03-02T06:35:32;8.60;99.90
5218;DHT22;26539;51.064;6.346;2024-03-02T06:37:58;8.70;99.90
5218;DHT22;26539;51.064;6.346;2024-03-02T06:40:23;8.70;99.90
5218;DHT22;26539;51.064;6.346;2024-03-02T06:42:49;8.70;99.90
5218;DHT22;26539;51.064;6.346;2024-03-02T06:45:14;8.80;99.90
5218;DHT22;26539;51.064;6.346;2024-03-02T06:47:39;8.90;1.00
5218;DHT22;26539;51.064;6.346;2024-03-02T06:50:05;9.00;1.00
5218;DHT22;26539;51.064;6.346;2024-03-02T06:52:32;9.10;99.90
5218;DHT22;26539;51.064;6.346;2024-03-02T06:54:57;9.20;99.90
5218;DHT22;26539;51.064;6.346;2024-03-02T06:57:23;9.30;1.00
5218;DHT22;26539;51.064;6.346;2024-03-02T06:59:50;9.40;99.90
5218;DHT22;26539;51.064;6.346;2024-03-02T07:02:16;9.40;99.90
5218;DHT22;26539;51.064;6.346;2024-03-02T07:04:42;9.50;99.90
5218;DHT22;26539;51.064;6.346;2024-03-02T07:07:07;9.50;99.90
5218;DHT22;26539;51.064;6.346;2024-03-02T07:09:33;9.60;1.00
5218;DHT22;26539;51.064;6.346;2024-03-02T07:11:58;9.70;1.00
5218;DHT22;26539;51.064;6.346;2024-03-02T07:14:24;9.70;1.00
5218;DHT22;26539;51.064;6.346;2024-03-02T07:17:12;9.70;1.00
5218;DHT22;26539;51.064;6.346;2024-03-02T07:19:38;9.70;1.00
5218;DHT22;26539;51.064;6.346;2024-03-02T07:22:05;9.60;1.00
5218;DHT22;26539;51.064;6.346;2024-03-02T07:24:31;9.70;1.00
5218;DHT22;26539;51.064;6.346;2024-03-02T07:26:56;9.70;1.00
5218;DHT22;26539;51.064;6.346;2024-03-02T07:29:22;9.70;99.90
5218;DHT22;26539;51.064;6.346;2024-03-02T07:31:47;9.90;99.90
5218;DHT22;26539;51.064;6.346;2024-03-02T07:34:13;9.90;99.90
5218;DHT22;26539;51.064;6.346;2024-03-02T07:36:38;10.00;99.90
5218;DHT22;26539;51.064;6.346;2024-03-02T07:39:04;10.00;17.70
5218;DHT22;26539;51.064;6.346;2024-03-02T07:41:29;10.00;1.00
5218;DHT22;26539;51.064;6.346;2024-03-02T07:43:56;10.00;1.00
5218;DHT22;26539;51.064;6.346;2024-03-02T07:46:22;10.10;1.00
5218;DHT22;26539;51.064;6.346;2024-03-02T07:48:47;10.10;1.00
5218;DHT22;26539;51.064;6.346;2024-03-02T07:51:13;10.10;1.00
5218;DHT22;26539;51.064;6.346;2024-03-02T07:53:39;10.20;1.00
5218;DHT22;26539;51.064;6.346;2024-03-02T07:56:05;10.20;1.00
5218;DHT22;26539;51.064;6.346;2024-03-02T07:58:31;10.30;1.00
5218;DHT22;26539;51.064;6.346;2024-03-02T08:00:56;10.40;99.90
5218;DHT22;26539;51.064;6.346;2024-03-02T08:03:22;10.60;99.90
5218;DHT22;26539;51.064;6.346;2024-03-02T08:05:47;10.80;99.90
5218;DHT22;26539;51.064;6.346;2024-03-02T08:08:13;10.90;99.90
5218;DHT22;26539;51.064;6.346;2024-03-02T08:10:38;11.00;56.90
5218;DHT22;26539;51.064;6.346;2024-03-02T08:13:04;11.70;1.00
5218;DHT22;26539;51.064;6.346;2024-03-02T08:15:29;13.20;1.00
5218;DHT22;26539;51.064;6.346;2024-03-02T08:17:55;13.60;1.00
5218;DHT22;26539;51.064;6.346;2024-03-02T08:20:21;17.50;1.00
5218;DHT22;26539;51.064;6.346;2024-03-02T08:22:47;20.40;99.90
5218;DHT22;26539;51.064;6.346;2024-03-02T08:25:12;22.50;99.90
5218;DHT22;26539;51.064;6.346;2024-03-02T08:27:40;24.60;99.90
5218;DHT22;26539;51.064;6.346;2024-03-02T08:30:05;26.70;99.90
5218;DHT22;26539;51.064;6.346;2024-03-02T08:32:31;28.60;99.90
5218;DHT22;26539;51.064;6.346;2024-03-02T08:34:57;30.00;99.90
5218;DHT22;26539;51.064;6.346;2024-03-02T08:37:22;29.20;99.90
5218;DHT22;26539;51.064;6.346;2024-03-02T08:39:48;29.30;99.90
5218;DHT22;26539;51.064;6.346;2024-03-02T08:42:13;30.70;99.90
5218;DHT22;26539;51.064;6.346;2024-03-02T08:44:39;31.90;99.90
5218;DHT22;26539;51.064;6.346;2024-03-02T08:47:04;30.20;99.90
5218;DHT22;26539;51.064;6.346;2024-03-02T08:49:30;28.00;99.90
5218;DHT22;26539;51.064;6.346;2024-03-02T08:51:55;26.50;99.90
5218;DHT22;26539;51.064;6.346;2024-03-02T08:54:21;25.00;99.90
5218;DHT22;26539;51.064;6.346;2024-03-02T08:56:47;23.50;99.90
5218;DHT22;26539;51.064;6.346;2024-03-02T08:59:13;22.00;99.90
5218;DHT22;26539;51.064;6.346;2024-03-02T09:01:38;20.70;99.90
5218;DHT22;26539;51.064;6.346;2024-03-02T09:04:07;19.70;99.90
5218;DHT22;26539;51.064;6.346;2024-03-02T09:06:34;18.80;99.90
5218;DHT22;26539;51.064;6.346;2024-03-02T09:08:59;18.10;99.90
5218;DHT22;26539;51.064;6.346;2024-03-02T09:11:25;17.60;99.90
5218;DHT22;26539;51.064;6.346;2024-03-02T09:13:51;17.20;99.90
5218;DHT22;26539;51.064;6.346;2024-03-02T09:16:16;16.90;99.90
5218;DHT22;26539;51.064;6.346;2024-03-02T09:18:42;16.70;99.90
5218;DHT22;26539;51.064;6.346;2024-03-02T09:21:07;16.50;99.90
5218;DHT22;26539;51.064;6.346;2024-03-02T09:23:33;16.30;99.90
5218;DHT22;26539;51.064;6.346;2024-03-02T09:25:59;16.20;99.90
5218;DHT22;26539;51.064;6.346;2024-03-02T09:28:24;16.20;99.90
5218;DHT22;26539;51.064;6.346;2024-03-02T09:30:49;16.30;99.90
5218;DHT22;26539;51.064;6.346;2024-03-02T09:33:15;16.40;99.90
5218;DHT22;26539;51.064;6.346;2024-03-02T09:35:40;16.60;99.90
5218;DHT22;26539;51.064;6.346;2024-03-02T09:38:06;16.70;99.90
5218;DHT22;26539;51.064;6.346;2024-03-02T09:40:31;16.90;99.90
5218;DHT22;26539;51.064;6.346;2024-03-02T09:42:57;18.00;99.90
5218;DHT22;26539;51.064;6.346;2024-03-02T09:45:23;19.70;99.90
5218;DHT22;26539;51.064;6.346;2024-03-02T09:47:49;21.20;99.90
5218;DHT22;26539;51.064;6.346;2024-03-02T09:50:14;22.50;99.90
5218;DHT22;26539;51.064;6.346;2024-03-02T09:52:41;23.90;99.90
5218;DHT22;26539;51.064;6.346;2024-03-02T09:55:07;25.40;99.90
5218;DHT22;26539;51.064;6.346;2024-03-02T09:57:33;26.40;99.90
5218;DHT22;26539;51.064;6.346;2024-03-02T09:59:58;27.10;99.90
5218;DHT22;26539;51.064;6.346;2024-03-02T10:02:24;27.80;99.90
5218;DHT22;26539;51.064;6.346;2024-03-02T10:04:50;28.20;99.90
5218;DHT22;26539;51.064;6.346;2024-03-02T10:07:16;28.60;99.90
5218;DHT22;26539;51.064;6.346;2024-03-02T10:09:42;29.10;99.90
5218;DHT22;26539;51.064;6.346;2024-03-02T10:12:08;29.50;99.90
5218;DHT22;26539;51.064;6.346;2024-03-02T10:14:34;29.70;99.90
5218;DHT22;26539;51.064;6.346;2024-03-02T10:17:03;29.60;99.90
5218;DHT22;26539;51.064;6.346;2024-03-02T10:19:29;29.70;99.90
5218;DHT22;26539;51.064;6.346;2024-03-02T10:21:58;29.90;99.90
5218;DHT22;26539;51.064;6.346;2024-03-02T10:24:24;30.30;99.90
5218;DHT22;26539;51.064;6.346;2024-03-02T10:26:50;30.50;99.90
5218;DHT22;26539;51.064;6.346;2024-03-02T10:29:16;30.40;99.90
5218;DHT22;26539;51.064;6.346;2024-03-02T10:31:43;30.50;99.90
5218;DHT22;26539;51.064;6.346;2024-03-02T10:34:09;30.40;99.90
5218;DHT22;26539;51.064;6.346;2024-03-02T10:36:35;30.40;99.90
5218;DHT22;26539;51.064;6.346;2024-03-02T10:39:02;30.60;99.90
5218;DHT22;26539;51.064;6.346;2024-03-02T10:41:27;31.00;99.90
5218;DHT22;26539;51.064;6.346;2024-03-02T10:43:54;31.10;99.90
5218;DHT22;26539;51.064;6.346;2024-03-02T10:46:27;31.30;99.90
5218;DHT22;26539;51.064;6.346;2024-03-02T10:48:54;31.30;99.90
5218;DHT22;26539;51.064;6.346;2024-03-02T10:51:20;31.60;99.90
5218;DHT22;26539;51.064;6.346;2024-03-02T10:53:46;31.90;99.90
5218;DHT22;26539;51.064;6.346;2024-03-02T10:56:11;32.00;99.90
5218;DHT22;26539;51.064;6.346;2024-03-02T10:58:41;31.90;99.90
5218;DHT22;26539;51.064;6.346;2024-03-02T11:01:06;32.00;99.90
5218;DHT22;26539;51.064;6.346;2024-03-02T11:03:36;31.80;99.90
5218;DHT22;26539;51.064;6.346;2024-03-02T11:06:06;31.40;99.90
5218;DHT22;26539;51.064;6.346;2024-03-02T11:08:32;31.00;99.90
5218;DHT22;26539;51.064;6.346;2024-03-02T11:10:59;30.40;99.90
5218;DHT22;26539;51.064;6.346;2024-03-02T11:13:31;30.50;99.90
5218;DHT22;26539;51.064;6.346;2024-03-02T11:15:58;30.70;99.90
5218;DHT22;26539;51.064;6.346;2024-03-02T11:18:24;30.80;99.90
5218;DHT22;26539;51.064;6.346;2024-03-02T11:20:50;30.90;99.90
5218;DHT22;26539;51.064;6.346;2024-03-02T11:23:16;31.10;99.90
5218;DHT22;26539;51.064;6.346;2024-03-02T11:25:41;31.40;99.90
5218;DHT22;26539;51.064;6.346;2024-03-02T11:28:07;31.20;99.90
5218;DHT22;26539;51.064;6.346;2024-03-02T11:35:34;31.50;99.90
5218;DHT22;26539;51.064;6.346;2024-03-02T11:38:00;31.40;99.90
5218;DHT22;26539;51.064;6.346;2024-03-02T11:40:26;31.20;99.90
5218;DHT22;26539;51.064;6.346;2024-03-02T11:42:52;31.10;99.90
5218;DHT22;26539;51.064;6.346;2024-03-02T11:45:22;30.30;99.90
5218;DHT22;26539;51.064;6.346;2024-03-02T11:47:51;29.10;99.90
5218;DHT22;26539;51.064;6.346;2024-03-02T11:53:03;26.50;99.90
5218;DHT22;26539;51.064;6.346;2024-03-02T11:55:31;25.40;99.90
5218;DHT22;26539;51.064;6.346;2024-03-02T11:58:00;24.50;99.90
5218;DHT22;26539;51.064;6.346;2024-03-02T12:00:26;23.60;99.90
5218;DHT22;26539;51.064;6.346;2024-03-02T12:03:07;22.90;99.90
5218;DHT22;26539;51.064;6.346;2024-03-02T12:05:33;22.60;99.90
5218;DHT22;26539;51.064;6.346;2024-03-02T12:08:01;22.30;99.90
5218;DHT22;26539;51.064;6.346;2024-03-02T12:10:27;21.70;99.90
5218;DHT22;26539;51.064;6.346;2024-03-02T12:12:59;21.10;99.90
5218;DHT22;26539;51.064;6.346;2024-03-02T12:15:25;20.90;99.90
5218;DHT22;26539;51.064;6.346;2024-03-02T12:17:55;20.80;99.90
5218;DHT22;26539;51.064;6.346;2024-03-02T12:20:21;20.80;99.90
5218;DHT22;26539;51.064;6.346;2024-03-02T12:22:46;20.60;99.90
5218;DHT22;26539;51.064;6.346;2024-03-02T12:25:12;20.20;99.90
5218;DHT22;26539;51.064;6.346;2024-03-02T12:27:39;19.80;99.90
5218;DHT22;26539;51.064;6.346;2024-03-02T12:30:04;19.60;99.90
5218;DHT22;26539;51.064;6.346;2024-03-02T12:32:33;19.40;99.90
5218;DHT22;26539;51.064;6.346;2024-03-02T12:34:59;19.40;99.90
5218;DHT22;26539;51.064;6.346;2024-03-02T12:37:24;19.40;99.90
5218;DHT22;26539;51.064;6.346;2024-03-02T12:39:50;19.50;99.90
5218;DHT22;26539;51.064;6.346;2024-03-02T12:42:15;19.50;99.90
5218;DHT22;26539;51.064;6.346;2024-03-02T12:44:41;19.60;99.90
5218;DHT22;26539;51.064;6.346;2024-03-02T12:47:06;19.60;99.90
5218;DHT22;26539;51.064;6.346;2024-03-02T12:49:32;19.60;99.90
5218;DHT22;26539;51.064;6.346;2024-03-02T12:51:57;19.60;99.90
5218;DHT22;26539;51.064;6.346;2024-03-02T12:54:23;19.70;99.90
5218;DHT22;26539;51.064;6.346;2024-03-02T12:56:50;19.50;99.90
5218;DHT22;26539;51.064;6.346;2024-03-02T12:59:19;19.50;99.90
5218;DHT22;26539;51.064;6.346;2024-03-02T13:01:53;19.70;99.90
5218;DHT22;26539;51.064;6.346;2024-03-02T13:04:25;19.80;99.90
5218;DHT22;26539;51.064;6.346;2024-03-02T13:06:51;19.80;99.90
5218;DHT22;26539;51.064;6.346;2024-03-02T13:09:16;19.70;99.90
5218;DHT22;26539;51.064;6.346;2024-03-02T13:11:42;19.50;99.90
5218;DHT22;26539;51.064;6.346;2024-03-02T13:14:07;19.30;99.90
5218;DHT22;26539;51.064;6.346;2024-03-02T13:16:38;19.40;99.90
5218;DHT22;26539;51.064;6.346;2024-03-02T13:19:04;19.40;99.90
5218;DHT22;26539;51.064;6.346;2024-03-02T13:21:29;19.40;99.90
5218;DHT22;26539;51.064;6.346;2024-03-02T13:23:55;19.50;99.90
5218;DHT22;26539;51.064;6.346;2024-03-02T13:26:20;19.20;99.90
5218;DHT22;26539;51.064;6.346;2024-03-02T13:28:46;18.90;99.90
5218;DHT22;26539;51.064;6.346;2024-03-02T13:31:11;19.00;99.90
5218;DHT22;26539;51.064;6.346;2024-03-02T13:33:37;18.80;99.90
5218;DHT22;26539;51.064;6.346;2024-03-02T13:36:03;18.50;99.90
5218;DHT22;26539;51.064;6.346;2024-03-02T13:38:28;18.40;99.90
5218;DHT22;26539;51.064;6.346;2024-03-02T13:40:54;18.30;99.90
5218;DHT22;26539;51.064;6.346;2024-03-02T13:43:19;18.10;99.90
5218;DHT22;26539;51.064;6.346;2024-03-02T13:45:45;17.90;99.90
5218;DHT22;26539;51.064;6.346;2024-03-02T13:48:10;17.80;99.90
5218;DHT22;26539;51.064;6.346;2024-03-02T13:50:36;17.60;99.90
5218;DHT22;26539;51.064;6.346;2024-03-02T13:53:01;17.40;99.90
5218;DHT22;26539;51.064;6.346;2024-03-02T13:55:30;17.20;99.90
5218;DHT22;26539;51.064;6.346;2024-03-02T13:57:55;17.00;99.90
5218;DHT22;26539;51.064;6.346;2024-03-02T14:00:21;16.80;99.90
5218;DHT22;26539;51.064;6.346;2024-03-02T14:02:46;16.60;99.90
5218;DHT22;26539;51.064;6.346;2024-03-02T14:05:14;16.50;99.90
5218;DHT22;26539;51.064;6.346;2024-03-02T14:07:40;16.40;99.90
5218;DHT22;26539;51.064;6.346;2024-03-02T14:10:06;16.30;99.90
5218;DHT22;26539;51.064;6.346;2024-03-02T14:12:32;16.30;99.90
5218;DHT22;26539;51.064;6.346;2024-03-02T14:14:57;16.40;99.90
5218;DHT22;26539;51.064;6.346;2024-03-02T14:17:27;16.50;99.90
5218;DHT22;26539;51.064;6.346;2024-03-02T14:19:53;16.50;99.90
5218;DHT22;26539;51.064;6.346;2024-03-02T14:22:19;16.50;99.90
5218;DHT22;26539;51.064;6.346;2024-03-02T14:24:45;16.40;99.90
5218;DHT22;26539;51.064;6.346;2024-03-02T14:27:10;16.50;99.90
5218;DHT22;26539;51.064;6.346;2024-03-02T14:29:35;16.50;99.90
5218;DHT22;26539;51.064;6.346;2024-03-02T14:32:03;16.40;99.90
5218;DHT22;26539;51.064;6.346;2024-03-02T14:34:29;16.40;99.90
5218;DHT22;26539;51.064;6.346;2024-03-02T14:36:54;16.50;99.90
5218;DHT22;26539;51.064;6.346;2024-03-02T14:39:20;16.70;99.90
5218;DHT22;26539;51.064;6.346;2024-03-02T14:41:46;17.10;99.90
5218;DHT22;26539;51.064;6.346;2024-03-02T14:44:11;17.20;99.90
5218;DHT22;26539;51.064;6.346;2024-03-02T14:46:37;17.30;99.90
5218;DHT22;26539;51.064;6.346;2024-03-02T14:49:02;17.60;99.90
5218;DHT22;26539;51.064;6.346;2024-03-02T14:51:29;17.70;99.90
5218;DHT22;26539;51.064;6.346;2024-03-02T14:53:55;17.70;99.90
5218;DHT22;26539;51.064;6.346;2024-03-02T14:56:21;17.70;99.90
5218;DHT22;26539;51.064;6.346;2024-03-02T14:58:46;17.70;99.90
5218;DHT22;26539;51.064;6.346;2024-03-02T15:01:11;17.50;99.90
5218;DHT22;26539;51.064;6.346;2024-03-02T15:03:37;17.20;99.90
5218;DHT22;26539;51.064;6.346;2024-03-02T15:06:03;16.90;99.90
5218;DHT22;26539;51.064;6.346;2024-03-02T15:08:29;16.50;99.90
5218;DHT22;26539;51.064;6.346;2024-03-02T15:10:55;16.20;99.90
5218;DHT22;26539;51.064;6.346;2024-03-02T15:13:24;15.90;99.90
5218;DHT22;26539;51.064;6.346;2024-03-02T15:15:51;15.60;99.90
5218;DHT22;26539;51.064;6.346;2024-03-02T15:18:17;15.40;99.90
5218;DHT22;26539;51.064;6.346;2024-03-02T15:20:42;15.30;99.90
5218;DHT22;26539;51.064;6.346;2024-03-02T15:23:08;15.10;99.90
5218;DHT22;26539;51.064;6.346;2024-03-02T15:25:33;15.00;99.90
5218;DHT22;26539;51.064;6.346;2024-03-02T15:27:59;14.90;99.90
5218;DHT22;26539;51.064;6.346;2024-03-02T15:30:24;14.80;99.90
5218;DHT22;26539;51.064;6.346;2024-03-02T15:32:50;14.70;99.90
5218;DHT22;26539;51.064;6.346;2024-03-02T15:35:16;14.60;99.90
5218;DHT22;26539;51.064;6.346;2024-03-02T15:37:42;14.50;99.90
5218;DHT22;26539;51.064;6.346;2024-03-02T15:40:08;14.40;99.90
5218;DHT22;26539;51.064;6.346;2024-03-02T15:42:34;14.50;99.90
5218;DHT22;26539;51.064;6.346;2024-03-02T15:44:59;14.50;99.90
5218;DHT22;26539;51.064;6.346;2024-03-02T15:47:25;14.50;99.90
5218;DHT22;26539;51.064;6.346;2024-03-02T15:49:50;14.50;99.90
5218;DHT22;26539;51.064;6.346;2024-03-02T15:52:16;14.40;99.90
5218;DHT22;26539;51.064;6.346;2024-03-02T15:54:46;14.40;99.90
5218;DHT22;26539;51.064;6.346;2024-03-02T15:57:11;14.40;99.90
5218;DHT22;26539;51.064;6.346;2024-03-02T15:59:37;14.40;99.90